createdAt,value
2023-03-20T00:01:41.293Z,10.32
2023-03-20T00:04:10.042Z,10.30
2023-03-20T00:06:37.587Z,10.29
2023-03-20T00:09:07.403Z,10.30
2023-03-20T00:11:36.270Z,10.32
2023-03-20T00:14:04.344Z,10.33
2023-03-20T00:16:32.781Z,10.34
2023-03-20T00:19:01.954Z,10.36
2023-03-20T00:21:29.509Z,10.35
2023-03-20T00:23:57.228Z,10.34
2023-03-20T00:26:25.713Z,10.34
2023-03-20T00:28:53.199Z,10.33
2023-03-20T00:31:23.194Z,10.31
2023-03-20T00:33:50.991Z,10.28
2023-03-20T00:36:19.887Z,10.22
2023-03-20T00:41:19.750Z,10.15
2023-03-20T00:43:48.186Z,10.11
2023-03-20T00:46:15.907Z,10.07
2023-03-20T00:48:43.579Z,10.03
2023-03-20T00:51:11.154Z,9.99
2023-03-20T00:53:40.044Z,9.96
2023-03-20T00:56:08.093Z,9.92
2023-03-20T00:58:35.539Z,9.88
2023-03-20T01:01:03.112Z,9.84
2023-03-20T01:03:32.141Z,9.82
2023-03-20T01:05:59.850Z,9.80
2023-03-20T01:08:27.378Z,9.78
2023-03-20T01:10:56.463Z,9.76
2023-03-20T01:13:24.512Z,9.74
2023-03-20T01:15:52.616Z,9.73
2023-03-20T01:18:20.790Z,9.72
2023-03-20T01:20:48.487Z,9.72
2023-03-20T01:23:15.955Z,9.72
2023-03-20T01:25:43.516Z,9.71
2023-03-20T01:28:16.448Z,9.71
2023-03-20T01:30:44.010Z,9.71
2023-03-20T01:33:13.698Z,9.69
2023-03-20T01:35:41.275Z,9.68
2023-03-20T01:38:11.653Z,9.69
2023-03-20T01:40:41.731Z,9.67
2023-03-20T01:43:11.488Z,9.66
2023-03-20T01:45:40.419Z,9.65
2023-03-20T01:48:14.607Z,9.63
2023-03-20T01:50:42.191Z,9.61
2023-03-20T01:53:11.162Z,9.58
2023-03-20T01:55:38.693Z,9.55
2023-03-20T01:58:07.674Z,9.51
2023-03-20T02:00:36.592Z,9.49
2023-03-20T02:03:05.649Z,9.48
2023-03-20T02:05:33.444Z,9.50
2023-03-20T02:08:04.692Z,9.50
2023-03-20T02:10:32.236Z,9.50
2023-03-20T02:13:00.459Z,9.51
2023-03-20T02:15:28.613Z,9.51
2023-03-20T02:17:56.086Z,9.51
2023-03-20T02:20:27.791Z,9.50
2023-03-20T02:23:13.912Z,9.48
2023-03-20T02:25:52.825Z,9.48
2023-03-20T02:28:38.008Z,9.49
2023-03-20T02:31:14.093Z,9.51
2023-03-20T02:33:46.740Z,9.52
2023-03-20T02:36:36.735Z,9.51
2023-03-20T02:39:08.672Z,9.53
2023-03-20T02:41:37.310Z,9.53
2023-03-20T02:44:06.018Z,9.53
2023-03-20T02:46:35.919Z,9.52
2023-03-20T02:49:04.631Z,9.50
2023-03-20T02:51:34.620Z,9.48
2023-03-20T02:54:03.956Z,9.47
2023-03-20T02:56:34.083Z,9.45
2023-03-20T02:59:03.813Z,9.45
2023-03-20T03:01:33.213Z,9.45
2023-03-20T03:04:01.681Z,9.44
2023-03-20T03:06:29.685Z,9.43
2023-03-20T03:09:00.168Z,9.44
2023-03-20T03:11:27.692Z,9.43
2023-03-20T03:13:56.922Z,9.43
2023-03-20T03:16:25.801Z,9.43
2023-03-20T03:18:55.467Z,9.41
2023-03-20T03:21:23.650Z,9.41
2023-03-20T03:23:51.137Z,9.37
2023-03-20T03:26:20.074Z,9.35
2023-03-20T03:28:48.549Z,9.35
2023-03-20T03:31:18.112Z,9.36
2023-03-20T03:33:45.925Z,9.36
2023-03-20T03:36:14.610Z,9.35
2023-03-20T03:38:45.465Z,9.35
2023-03-20T03:41:19.579Z,9.34
2023-03-20T03:43:47.837Z,9.34
2023-03-20T03:46:15.898Z,9.33
2023-03-20T03:48:45.370Z,9.33
2023-03-20T03:51:13.055Z,9.33
2023-03-20T03:53:41.213Z,9.33
2023-03-20T03:56:10.038Z,9.33
2023-03-20T03:58:38.120Z,9.31
2023-03-20T04:01:05.720Z,9.31
2023-03-20T04:03:34.049Z,9.28
2023-03-20T04:06:02.960Z,9.25
2023-03-20T04:08:30.467Z,9.21
2023-03-20T04:10:57.956Z,9.19
2023-03-20T04:13:25.504Z,9.18
2023-03-20T04:15:53.217Z,9.17
2023-03-20T04:18:20.857Z,9.18
2023-03-20T04:20:48.451Z,9.17
2023-03-20T04:23:17.336Z,9.16
2023-03-20T04:25:44.854Z,9.16
2023-03-20T04:28:12.357Z,9.16
2023-03-20T04:30:39.980Z,9.14
2023-03-20T04:33:07.799Z,9.12
2023-03-20T04:35:35.622Z,9.08
2023-03-20T04:38:03.506Z,9.08
2023-03-20T04:40:32.674Z,9.08
2023-03-20T04:43:00.345Z,9.07
2023-03-20T04:45:27.797Z,9.06
2023-03-20T04:47:55.358Z,9.03
2023-03-20T04:50:22.884Z,9.03
2023-03-20T04:52:50.580Z,9.01
2023-03-20T04:55:18.277Z,8.99
2023-03-20T04:57:47.239Z,8.97
2023-03-20T05:00:15.120Z,8.94
2023-03-20T05:02:42.662Z,8.93
2023-03-20T05:05:10.400Z,8.89
2023-03-20T05:07:37.983Z,8.86
2023-03-20T05:10:05.967Z,8.84
2023-03-20T05:12:33.453Z,8.84
2023-03-20T05:15:02.403Z,8.83
2023-03-20T05:17:29.889Z,8.82
2023-03-20T05:19:57.393Z,8.79
2023-03-20T05:22:24.807Z,8.76
2023-03-20T05:24:52.383Z,8.73
2023-03-20T05:27:19.956Z,8.71
2023-03-20T05:29:47.456Z,8.69
2023-03-20T05:32:16.450Z,8.69
2023-03-20T05:34:43.913Z,8.68
2023-03-20T05:37:11.468Z,8.68
2023-03-20T05:39:39.259Z,8.69
2023-03-20T05:42:06.725Z,8.61
2023-03-20T05:44:34.209Z,8.59
2023-03-20T05:47:01.807Z,8.54
2023-03-20T05:49:30.743Z,8.54
2023-03-20T05:51:58.267Z,8.55
2023-03-20T05:54:25.920Z,8.53
2023-03-20T05:56:53.484Z,8.52
2023-03-20T05:59:21.019Z,8.53
2023-03-20T06:01:48.507Z,8.51
2023-03-20T06:04:16.009Z,8.49
2023-03-20T06:06:44.871Z,8.47
2023-03-20T06:09:12.415Z,8.46
2023-03-20T06:11:39.952Z,8.45
2023-03-20T06:14:07.486Z,8.44
2023-03-20T06:16:34.977Z,8.44
2023-03-20T06:19:02.465Z,8.44
2023-03-20T06:21:29.932Z,8.42
2023-03-20T06:23:59.943Z,8.40
2023-03-20T06:26:28.088Z,8.39
2023-03-20T06:28:55.915Z,8.35
2023-03-20T06:31:23.491Z,8.34
2023-03-20T06:33:51.043Z,8.35
2023-03-20T06:36:18.488Z,8.37
2023-03-20T06:38:46.002Z,8.39
2023-03-20T06:41:24.589Z,8.41
2023-03-20T06:44:01.184Z,8.43
2023-03-20T06:46:28.771Z,8.46
2023-03-20T06:48:56.361Z,8.44
2023-03-20T06:51:23.896Z,8.41
2023-03-20T06:53:51.450Z,8.41
2023-03-20T06:56:20.404Z,8.44
2023-03-20T06:58:47.900Z,8.46
2023-03-20T07:01:17.178Z,8.45
2023-03-20T07:03:45.077Z,8.44
2023-03-20T07:06:13.413Z,8.47
2023-03-20T07:08:41.284Z,8.49
2023-03-20T07:11:09.244Z,8.51
2023-03-20T07:13:38.162Z,8.51
2023-03-20T07:16:06.146Z,8.53
2023-03-20T07:18:33.712Z,8.53
2023-03-20T07:21:02.505Z,8.53
2023-03-20T07:23:30.651Z,8.52
2023-03-20T07:25:58.288Z,8.51
2023-03-20T07:28:26.034Z,8.50
2023-03-20T07:30:55.163Z,8.51
2023-03-20T07:33:22.738Z,8.54
2023-03-20T07:35:53.056Z,8.58
2023-03-20T07:38:20.630Z,8.59
2023-03-20T07:40:48.886Z,8.60
2023-03-20T07:43:16.489Z,8.61
2023-03-20T07:45:44.004Z,8.62
2023-03-20T07:48:13.079Z,8.65
2023-03-20T07:50:40.838Z,8.69
2023-03-20T07:53:08.538Z,8.69
2023-03-20T07:55:36.556Z,8.69
2023-03-20T07:58:04.448Z,8.71
2023-03-20T08:00:32.304Z,8.72
2023-03-20T08:02:59.917Z,8.71
2023-03-20T08:05:28.904Z,8.70
2023-03-20T08:07:56.532Z,8.74
2023-03-20T08:10:24.150Z,8.76
2023-03-20T08:12:51.658Z,8.76
2023-03-20T08:15:19.245Z,8.80
2023-03-20T08:17:47.127Z,8.84
2023-03-20T08:20:15.311Z,8.86
2023-03-20T08:22:44.740Z,8.88
2023-03-20T08:25:12.204Z,8.87
2023-03-20T08:27:39.698Z,8.88
2023-03-20T08:30:07.673Z,8.93
2023-03-20T08:32:35.157Z,9.00
2023-03-20T08:35:02.940Z,9.09
2023-03-20T08:37:30.600Z,9.16
2023-03-20T08:39:59.513Z,9.21
2023-03-20T08:42:27.123Z,9.24
2023-03-20T08:44:54.682Z,9.24
2023-03-20T08:47:22.292Z,9.26
2023-03-20T08:49:49.800Z,9.26
2023-03-20T08:52:17.312Z,9.26
2023-03-20T08:54:44.756Z,9.24
2023-03-20T08:57:13.706Z,9.25
2023-03-20T08:59:41.168Z,9.27
2023-03-20T09:02:08.881Z,9.29
2023-03-20T09:04:36.636Z,9.32
2023-03-20T09:07:04.111Z,9.31
2023-03-20T09:09:32.372Z,9.31
2023-03-20T09:11:59.904Z,9.35
2023-03-20T09:14:29.271Z,9.37
2023-03-20T09:16:56.760Z,9.39
2023-03-20T09:19:24.298Z,9.43
2023-03-20T09:21:51.807Z,9.45
2023-03-20T09:24:19.262Z,9.50
2023-03-20T09:26:46.817Z,9.48
2023-03-20T09:29:14.297Z,9.52
2023-03-20T09:31:43.200Z,9.54
2023-03-20T09:34:11.006Z,9.56
2023-03-20T09:36:38.474Z,9.56
2023-03-20T09:39:05.974Z,9.57
2023-03-20T09:41:45.857Z,9.57
2023-03-20T09:44:22.065Z,9.55
2023-03-20T09:47:18.396Z,9.54
2023-03-20T09:49:48.694Z,9.52
2023-03-20T09:52:19.485Z,9.54
2023-03-20T09:54:54.506Z,9.58
2023-03-20T09:57:23.731Z,9.63
2023-03-20T09:59:51.902Z,9.64
2023-03-20T10:02:24.354Z,9.68
2023-03-20T10:04:52.348Z,9.72
2023-03-20T10:07:19.809Z,9.74
2023-03-20T10:09:47.345Z,9.79
2023-03-20T10:12:20.680Z,9.81
2023-03-20T10:14:52.833Z,9.83
2023-03-20T10:17:25.529Z,9.86
2023-03-20T10:19:54.603Z,9.85
2023-03-20T10:22:25.318Z,9.90
2023-03-20T10:24:54.029Z,9.95
2023-03-20T10:27:25.077Z,9.95
2023-03-20T10:29:56.216Z,9.95
2023-03-20T10:32:26.240Z,9.93
2023-03-20T10:34:59.128Z,9.93
2023-03-20T10:37:30.601Z,9.95
2023-03-20T10:40:00.926Z,9.94
2023-03-20T10:42:28.762Z,9.94
2023-03-20T10:44:57.277Z,9.95
2023-03-20T10:47:26.420Z,9.99
2023-03-20T10:49:54.870Z,10.02
2023-03-20T10:52:24.024Z,10.05
2023-03-20T10:54:53.395Z,10.06
2023-03-20T10:57:22.214Z,10.11
2023-03-20T10:59:50.239Z,10.13
2023-03-20T11:02:18.543Z,10.10
2023-03-20T11:04:47.633Z,10.09
2023-03-20T11:07:16.791Z,10.07
2023-03-20T11:09:44.258Z,10.08
2023-03-20T11:12:16.415Z,10.11
2023-03-20T11:14:43.905Z,10.10
2023-03-20T11:17:11.524Z,10.07
2023-03-20T11:19:39.742Z,10.05
2023-03-20T11:22:23.020Z,10.06
2023-03-20T11:24:52.742Z,10.06
2023-03-20T11:27:20.864Z,10.04
2023-03-20T11:29:48.489Z,10.06
2023-03-20T11:32:19.144Z,10.06
2023-03-20T11:34:47.714Z,10.06
2023-03-20T11:37:24.344Z,10.07
2023-03-20T11:39:58.199Z,10.07
2023-03-20T11:42:26.363Z,10.09
2023-03-20T11:45:00.892Z,10.07
2023-03-20T11:47:29.179Z,10.05
2023-03-20T11:49:57.024Z,10.03
2023-03-20T11:52:28.632Z,10.02
2023-03-20T11:54:56.968Z,10.01
2023-03-20T11:57:29.926Z,10.04
2023-03-20T11:59:57.600Z,10.08
2023-03-20T12:02:25.312Z,10.10
2023-03-20T12:04:52.913Z,10.12
2023-03-20T12:07:20.893Z,10.13
2023-03-20T12:09:49.910Z,10.14
2023-03-20T12:12:19.984Z,10.14
2023-03-20T12:14:49.096Z,10.12
2023-03-20T12:17:22.130Z,10.11
2023-03-20T12:19:49.575Z,10.07
2023-03-20T12:22:19.980Z,10.02
2023-03-20T12:24:49.014Z,10.00
2023-03-20T12:27:18.674Z,10.00
2023-03-20T12:29:47.946Z,9.99
2023-03-20T12:32:16.470Z,9.98
2023-03-20T12:34:44.894Z,9.98
2023-03-20T12:37:13.301Z,10.01
2023-03-20T12:39:41.503Z,10.02
2023-03-20T12:42:10.627Z,10.01
2023-03-20T12:44:40.945Z,10.00
2023-03-20T12:47:16.579Z,9.93
2023-03-20T12:49:46.409Z,9.87
2023-03-20T12:52:15.585Z,9.88
2023-03-20T12:54:46.700Z,9.88
2023-03-20T12:57:17.370Z,9.86
2023-03-20T12:59:49.758Z,9.87
2023-03-20T13:02:20.644Z,9.89
2023-03-20T13:04:51.286Z,9.91
2023-03-20T13:07:19.428Z,9.92
2023-03-20T13:09:59.265Z,9.92
2023-03-20T13:12:30.370Z,9.88
2023-03-20T13:15:00.611Z,9.90
2023-03-20T13:17:28.967Z,9.92
2023-03-20T13:20:00.523Z,9.88
2023-03-20T13:22:30.492Z,9.85
2023-03-20T13:25:01.696Z,9.85
2023-03-20T13:27:31.625Z,9.89
2023-03-20T13:30:01.482Z,9.90
2023-03-20T13:32:32.890Z,9.86
2023-03-20T13:35:14.780Z,9.78
2023-03-20T13:37:42.754Z,9.74
2023-03-20T13:40:13.584Z,9.69
2023-03-20T13:42:43.889Z,9.62
2023-03-20T13:45:19.685Z,9.58
2023-03-20T13:47:47.284Z,9.54
2023-03-20T13:50:23.905Z,9.52
2023-03-20T13:52:53.491Z,9.51
2023-03-20T13:55:22.298Z,9.53
2023-03-20T13:57:54.766Z,9.53
2023-03-20T14:00:26.427Z,9.47
2023-03-20T14:03:03.160Z,9.44
2023-03-20T14:05:30.782Z,9.43
2023-03-20T14:07:58.635Z,9.43
2023-03-20T14:10:41.014Z,9.38
2023-03-20T14:13:12.755Z,9.37
2023-03-20T14:15:42.110Z,9.38
2023-03-20T14:18:15.034Z,9.37
2023-03-20T14:20:43.344Z,9.35
2023-03-20T14:23:16.565Z,9.32
2023-03-20T14:25:44.293Z,9.29
2023-03-20T14:28:24.587Z,9.27
2023-03-20T14:30:53.439Z,9.22
2023-03-20T14:33:26.132Z,9.17
2023-03-20T14:36:11.599Z,9.14
2023-03-20T14:38:40.123Z,9.12
2023-03-20T14:41:10.271Z,9.10
2023-03-20T14:43:43.641Z,9.09
2023-03-20T14:46:18.057Z,9.09
2023-03-20T14:48:45.758Z,9.06
2023-03-20T14:51:17.657Z,9.09
2023-03-20T14:53:45.493Z,9.11
2023-03-20T14:56:13.350Z,9.11
2023-03-20T14:58:48.880Z,9.10
2023-03-20T15:01:20.022Z,9.09
2023-03-20T15:03:48.774Z,9.08
2023-03-20T15:06:18.025Z,9.07
2023-03-20T15:08:46.381Z,9.04
2023-03-20T15:11:14.958Z,9.01
2023-03-20T15:13:42.445Z,8.99
2023-03-20T15:16:10.984Z,8.99
2023-03-20T15:18:40.737Z,8.99
2023-03-20T15:21:12.460Z,8.98
2023-03-20T15:23:41.947Z,8.99
2023-03-20T15:26:09.679Z,9.00
2023-03-20T15:28:37.747Z,9.00
2023-03-20T15:31:05.618Z,9.00
2023-03-20T15:33:33.777Z,8.97
2023-03-20T15:36:09.154Z,8.97
2023-03-20T15:38:36.676Z,8.99
2023-03-20T15:41:05.198Z,8.99
2023-03-20T15:43:33.001Z,9.01
2023-03-20T15:46:16.773Z,9.03
2023-03-20T15:48:47.984Z,9.06
2023-03-20T15:51:17.164Z,9.05
2023-03-20T15:53:45.852Z,9.06
2023-03-20T15:56:20.710Z,9.05
2023-03-20T15:58:49.077Z,9.01
2023-03-20T16:01:17.217Z,8.96
2023-03-20T16:03:44.767Z,8.95
2023-03-20T16:06:15.339Z,8.92
2023-03-20T16:08:46.120Z,8.91
2023-03-20T16:11:15.382Z,8.88
2023-03-20T16:13:43.758Z,8.85
2023-03-20T16:16:12.952Z,8.85
2023-03-20T16:18:40.530Z,8.81
2023-03-20T16:21:08.714Z,8.81
2023-03-20T16:23:36.832Z,8.78
2023-03-20T16:26:06.624Z,8.74
2023-03-20T16:28:36.579Z,8.74
2023-03-20T16:32:19.916Z,8.73
2023-03-20T16:34:48.683Z,8.69
2023-03-20T16:37:23.482Z,8.66
2023-03-20T16:40:02.272Z,8.65
2023-03-20T16:42:30.443Z,8.62
2023-03-20T16:44:58.739Z,8.61
2023-03-20T16:47:32.955Z,8.61
2023-03-20T16:50:21.924Z,8.62
2023-03-20T16:52:50.548Z,8.62
2023-03-20T16:55:19.218Z,8.61
2023-03-20T16:57:47.544Z,8.63
2023-03-20T17:00:20.716Z,8.65
2023-03-20T17:02:52.974Z,8.64
2023-03-20T17:05:21.959Z,8.66
2023-03-20T17:07:52.329Z,8.68
2023-03-20T17:10:20.908Z,8.67
2023-03-20T17:12:48.914Z,8.66
2023-03-20T17:15:16.625Z,8.66
2023-03-20T17:17:44.466Z,8.63
2023-03-20T17:20:18.176Z,8.62
2023-03-20T17:22:45.888Z,8.61
2023-03-20T17:25:13.443Z,8.61
2023-03-20T17:27:41.117Z,8.60
2023-03-20T17:30:12.042Z,8.57
2023-03-20T17:32:39.571Z,8.56
2023-03-20T17:35:07.609Z,8.55
2023-03-20T17:37:36.574Z,8.56
2023-03-20T17:40:04.252Z,8.57
2023-03-20T17:42:32.164Z,8.59
2023-03-20T17:44:59.727Z,8.59
2023-03-20T17:47:27.911Z,8.60
2023-03-20T17:49:55.993Z,8.60
2023-03-20T17:52:24.229Z,8.60
2023-03-20T17:54:53.486Z,8.60
2023-03-20T17:57:21.662Z,8.58
2023-03-20T17:59:50.032Z,8.58
2023-03-20T18:02:18.245Z,8.57
2023-03-20T18:04:45.860Z,8.59
2023-03-20T18:07:13.602Z,8.58
2023-03-20T18:09:41.646Z,8.59
2023-03-20T18:12:15.026Z,8.58
2023-03-20T18:14:43.178Z,8.57
2023-03-20T18:17:11.591Z,8.57
2023-03-20T18:19:39.046Z,8.54
2023-03-20T18:22:07.092Z,8.56
2023-03-20T18:24:34.751Z,8.56
2023-03-20T18:27:02.507Z,8.56
2023-03-20T18:29:31.412Z,8.56
2023-03-20T18:31:58.963Z,8.58
2023-03-20T18:34:26.552Z,8.58
2023-03-20T18:36:54.070Z,8.57
2023-03-20T18:39:22.333Z,8.57
2023-03-20T18:41:50.070Z,8.57
2023-03-20T18:44:17.604Z,8.58
2023-03-20T18:46:46.595Z,8.56
2023-03-20T18:49:15.368Z,8.54
2023-03-20T18:51:42.874Z,8.55
2023-03-20T18:54:10.378Z,8.54
2023-03-20T18:56:37.971Z,8.54
2023-03-20T18:59:06.582Z,8.57
2023-03-20T19:01:34.307Z,8.58
2023-03-20T19:04:03.442Z,8.59
2023-03-20T19:06:32.220Z,8.60
2023-03-20T19:08:59.930Z,8.60
2023-03-20T19:11:27.393Z,8.60
2023-03-20T19:13:55.043Z,8.59
2023-03-20T19:16:24.500Z,8.58
2023-03-20T19:18:53.026Z,8.59
2023-03-20T19:21:25.997Z,8.62
2023-03-20T19:23:54.179Z,8.63
2023-03-20T19:26:21.996Z,8.65
2023-03-20T19:28:49.862Z,8.66
2023-03-20T19:31:17.410Z,8.66
2023-03-20T19:33:45.085Z,8.65
2023-03-20T19:36:20.067Z,8.65
2023-03-20T19:38:48.952Z,8.67
2023-03-20T19:41:16.423Z,8.69
2023-03-20T19:43:52.406Z,8.70
2023-03-20T19:46:37.994Z,8.71
2023-03-20T19:49:07.133Z,8.72
2023-03-20T19:51:34.667Z,8.72
2023-03-20T19:54:03.963Z,8.75
2023-03-20T19:56:31.434Z,8.76
2023-03-20T19:58:58.948Z,8.77
2023-03-20T20:01:26.978Z,8.80
2023-03-20T20:03:55.038Z,8.82
2023-03-20T20:06:29.500Z,8.82
2023-03-20T20:08:58.635Z,8.85
2023-03-20T20:11:27.469Z,8.85
2023-03-20T20:14:06.293Z,8.86
2023-03-20T20:16:34.704Z,8.87
2023-03-20T20:19:02.387Z,8.89
2023-03-20T20:24:18.010Z,8.94
2023-03-20T20:26:54.964Z,8.95
2023-03-20T20:29:28.097Z,8.97
2023-03-20T20:31:55.800Z,8.97
2023-03-20T20:39:59.031Z,9.02
2023-03-20T20:42:27.953Z,9.04
2023-03-20T20:44:55.459Z,9.04
2023-03-20T20:47:23.179Z,9.05
2023-03-20T20:49:51.127Z,9.06
2023-03-20T20:52:19.016Z,9.07
2023-03-20T20:54:46.602Z,9.09
2023-03-20T20:57:14.328Z,9.09
2023-03-20T20:59:43.268Z,9.09
2023-03-20T21:02:11.948Z,9.10
2023-03-20T21:04:39.923Z,9.11
2023-03-20T21:07:10.611Z,9.12
2023-03-20T21:09:38.832Z,9.11
2023-03-20T21:12:06.752Z,9.12
2023-03-20T21:14:34.515Z,9.12
2023-03-20T21:17:03.479Z,9.13
2023-03-20T21:19:31.497Z,9.13
2023-03-20T21:21:59.000Z,9.13
2023-03-20T21:24:33.138Z,9.13
2023-03-20T21:27:02.054Z,9.14
2023-03-20T21:29:29.582Z,9.14
2023-03-20T21:31:57.120Z,9.14
2023-03-20T21:34:26.102Z,9.14
2023-03-20T21:36:53.577Z,9.15
2023-03-20T21:39:21.124Z,9.14
2023-03-20T21:41:48.589Z,9.15
2023-03-20T21:44:19.801Z,9.15
2023-03-20T21:47:58.183Z,9.16
2023-03-20T21:50:37.071Z,9.17
2023-03-20T21:53:12.457Z,9.17
2023-03-20T22:04:45.119Z,9.17
2023-03-20T22:18:21.582Z,9.17
2023-03-20T22:21:30.038Z,9.18
2023-03-20T22:27:05.211Z,9.18
2023-03-20T22:38:08.463Z,9.17
2023-03-20T22:43:55.114Z,9.17
2023-03-20T22:46:05.425Z,9.17
2023-03-20T22:48:35.599Z,9.17
2023-03-20T22:51:03.277Z,9.18
2023-03-20T22:53:32.177Z,9.18
2023-03-20T22:56:01.087Z,9.18
2023-03-20T22:58:28.641Z,9.20
2023-03-20T23:00:56.393Z,9.21
2023-03-20T23:03:39.879Z,9.21
2023-03-20T23:06:09.221Z,9.21
2023-03-20T23:08:48.050Z,9.18
2023-03-20T23:11:19.972Z,9.21
2023-03-20T23:13:47.529Z,9.23
2023-03-20T23:16:15.027Z,9.22
2023-03-20T23:18:42.646Z,9.19
2023-03-20T23:21:10.225Z,9.21
2023-03-20T23:23:38.282Z,9.22
2023-03-20T23:26:06.137Z,9.22
2023-03-20T23:28:35.110Z,9.22
2023-03-20T23:31:10.525Z,9.22
2023-03-20T23:33:38.622Z,9.22
2023-03-20T23:36:18.713Z,9.22
2023-03-20T23:38:52.487Z,9.24
2023-03-20T23:41:20.100Z,9.24
2023-03-20T23:43:49.815Z,9.25
2023-03-20T23:46:18.630Z,9.26
2023-03-20T23:48:46.110Z,9.26
2023-03-20T23:51:13.571Z,9.25
2023-03-20T23:53:41.170Z,9.25
2023-03-20T23:56:09.056Z,9.25
2023-03-20T23:58:41.941Z,9.26
